EGMD/LYX METAR and TAF weather

Enter ICAO airport designator
Station Type Date Time Source
EGMD METAR 2019/10/21 04:50 UTC NOAA

EGMD 210450Z AUTO 36016KT 8000 -RA FEW019/// BKN043/// 11/10 Q1011


Station Type Date Time Source
EGMD Decoded METAR 2019/10/21 04:50 UTC NOAA

Lydd Airport , United Kingdom (EGMD) 50-57N 000-56E
Oct 21, 2019 - 12:50 AM EDT / 2019.10.21 0450 UTC
Wind: from the N (360 degrees) at 18 MPH (16 KT):0
Visibility: 4 mile(s):0
Sky conditions: mostly cloudy
Weather: light rain
Temperature: 51 F (11 C)
Dew Point: 50 F (10 C)
Relative Humidity: 93%
Pressure (altimeter): 29.85 in. Hg (1011 hPa)
ob: EGMD 210450Z AUTO 36016KT 8000 -RA FEW019/// BKN043/// 11/10 Q1011
cycle: 5

Station Type Date Time Source
EGMD TAF UTC NOAA

Error!

Example: see airport list